Diesel — DIESEL — position and weather

sailwx.info

Track history (hours):
 
Tides and Currents Weather Stations Pressure Air Temp Water Temp Dewpoint Dewpoint Depression Visibility Wind Speed Wind Dir Waves Ship Positions

Diesel

Last reported at 2017-Nov-05 21:36 UTC. Time now 2017-Nov-21 23:10 UTC.
Position N 43°54' W 078°60'.
Warning: this ship's position is 16 days out of date.

Length 14 m; draft 1.2 m.

Type: Pleasure craft. MMSI: 316025548.

Date/timePositionNaut miles runAvg speedWind from/ knotsBaromVisibWave heightAir tempDewpointWater temp
2017-Nov-05 21:36N 43°54' W 078°60'442.7
2017-Nov-05 21:30N 43°52' W 078°55'1020.6
2017-Nov-05 21:00N 43°54' W 078°41'1 1.5
2017-Nov-05 20:29N 43°53' W 078°40'0 0.0
2017-Nov-05 17:24N 43°53' W 078°40'0 0.0
2017-Nov-05 17:00N 43°53' W 078°40'0 0.0
2017-Nov-05 16:30N 43°53' W 078°40'0 0.0
2017-Nov-05 16:00N 43°53' W 078°40'0 0.0
2017-Nov-05 15:27N 43°53' W 078°40'0 0.0
2017-Nov-05 14:57N 43°53' W 078°40'0 0.0
2017-Nov-05 14:28N 43°53' W 078°40'0 0.0
2017-Nov-05 13:57N 43°53' W 078°40'0 0.0
2017-Nov-05 13:29N 43°53' W 078°40'0 0.0
2017-Nov-05 12:57N 43°53' W 078°40'0 0.0
2017-Nov-05 12:29N 43°53' W 078°40'0 0.0
2017-Nov-05 11:58N 43°53' W 078°40'0 0.0
2017-Nov-05 11:30N 43°53' W 078°40'0 0.0
2017-Nov-05 10:59N 43°53' W 078°40'0 0.0
2017-Nov-05 10:30N 43°53' W 078°40'0 0.0
2017-Nov-05 09:58N 43°53' W 078°40'0 0.1
2017-Nov-05 09:27N 43°53' W 078°40'0 0.1
2017-Nov-05 09:00N 43°53' W 078°40'0 0.0
2017-Nov-05 08:30N 43°53' W 078°40'0 0.0
2017-Nov-05 07:59N 43°53' W 078°40'0 0.0
2017-Nov-05 07:30N 43°53' W 078°40'0 0.0
2017-Nov-05 06:59N 43°53' W 078°40'0 0.0
2017-Nov-05 06:28N 43°53' W 078°40'0 0.0
2017-Nov-05 05:59N 43°53' W 078°40'0 0.1
2017-Nov-05 05:29N 43°53' W 078°40'0 0.0
2017-Nov-05 04:59N 43°53' W 078°40'0 0.0
2017-Nov-05 04:30N 43°53' W 078°40'0 0.0
2017-Nov-05 03:58N 43°53' W 078°40'0 0.1
2017-Nov-05 03:29N 43°53' W 078°40'0 0.0
2017-Nov-05 02:59N 43°53' W 078°40'0 0.0
2017-Nov-05 02:29N 43°53' W 078°40'0 0.0
2017-Nov-05 01:59N 43°53' W 078°40'0 0.0
2017-Nov-05 01:28N 43°53' W 078°40'0 0.0
2017-Nov-05 00:58N 43°53' W 078°40'0 0.0
2017-Nov-05 00:28N 43°53' W 078°40'0 0.0
2017-Nov-04 23:59N 43°53' W 078°40'0 0.0
2017-Nov-04 23:29N 43°53' W 078°40'0 0.0
2017-Nov-04 23:00N 43°53' W 078°40'0 0.0
2017-Nov-04 22:28N 43°53' W 078°40'0 0.0
2017-Nov-04 22:00N 43°53' W 078°40'0 0.0
2017-Nov-04 21:29N 43°53' W 078°40'0 0.0
2017-Nov-04 20:57N 43°53' W 078°40'0 0.0
2017-Nov-04 20:29N 43°53' W 078°40'1 2.7
2017-Nov-04 20:00N 43°52' W 078°41'3 6.8
2017-Nov-04 19:30N 43°51' W 078°45'4 7.1
2017-Nov-04 19:00N 43°51' W 078°50'4 7.1
2017-Nov-04 18:30N 43°50' W 078°55'1 2.4
2017-Nov-04 17:59N 43°51' W 078°56'0 0.0
2017-Nov-04 17:30N 43°51' W 078°56'0 0.7
2017-Nov-04 17:00N 43°51' W 078°56'3 5.4
2017-Nov-04 16:30N 43°49' W 078°58'4 7.5
2017-Nov-04 16:00N 43°46' W 079°02'4 7.5
2017-Nov-04 15:30N 43°44' W 079°06'4 7.2
2017-Nov-04 15:00N 43°41' W 079°09'3 6.9
2017-Nov-04 14:30N 43°39' W 079°13'3 6.5
2017-Nov-04 14:00N 43°38' W 079°17'3 6.2
2017-Nov-04 13:30N 43°37' W 079°21'4 8.2
2017-Nov-04 13:00N 43°35' W 079°26'4 8.4
2017-Nov-04 12:31N 43°34' W 079°32'2 4.7
2017-Nov-04 11:59N 43°33' W 079°35'0 0.0
2017-Nov-04 11:28N 43°33' W 079°35'0 0.0
2017-Nov-04 10:59N 43°33' W 079°35'0 0.0
2017-Nov-04 10:28N 43°33' W 079°35'0 0.0
2017-Nov-04 09:59N 43°33' W 079°35'0 0.0
2017-Nov-04 09:29N 43°33' W 079°35'0 0.0
2017-Nov-04 08:58N 43°33' W 079°35'0 0.0
2017-Nov-04 08:29N 43°33' W 079°35'0 0.0
2017-Nov-04 08:00N 43°33' W 079°35'0 0.0
2017-Nov-04 07:28N 43°33' W 079°35'0 0.0
2017-Nov-04 07:00N 43°33' W 079°35'0 0.0
2017-Nov-04 06:30N 43°33' W 079°35'0 0.0
2017-Nov-04 05:58N 43°33' W 079°35'0 0.0
2017-Nov-04 05:30N 43°33' W 079°35'0 0.0
2017-Nov-04 04:58N 43°33' W 079°35'0 0.0
2017-Nov-04 04:29N 43°33' W 079°35'0 0.0
2017-Nov-04 04:00N 43°33' W 079°35'0 0.0
2017-Nov-04 03:29N 43°33' W 079°35'0 0.0
2017-Nov-04 03:00N 43°33' W 079°35'0 0.0
2017-Nov-04 02:29N 43°33' W 079°35'0 0.0
2017-Nov-04 01:59N 43°33' W 079°35'0 0.0
2017-Nov-04 01:30N 43°33' W 079°35'0 0.0
2017-Nov-04 00:59N 43°33' W 079°35'0 0.0
2017-Nov-04 00:28N 43°33' W 079°35'0 0.0
2017-Nov-03 23:59N 43°33' W 079°35'0 0.0
2017-Nov-03 23:28N 43°33' W 079°35'0 0.0
2017-Nov-03 22:58N 43°33' W 079°35'0 0.0
2017-Nov-03 22:28N 43°33' W 079°35'0 0.0
2017-Nov-03 22:00N 43°33' W 079°35'0 0.0
2017-Nov-03 21:29N 43°33' W 079°35'0 0.0
2017-Nov-03 20:59N 43°33' W 079°35'0 0.0
2017-Nov-03 20:30N 43°33' W 079°35'0 0.0
2017-Nov-03 20:00N 43°33' W 079°35'0 0.0
2017-Nov-03 19:30N 43°33' W 079°35'0 0.1
2017-Nov-03 18:58N 43°33' W 079°35'0 0.0
2017-Nov-03 18:30N 43°33' W 079°35'0 0.0
2017-Nov-03 18:00N 43°33' W 079°35'0 0.0
2017-Nov-03 17:30N 43°33' W 079°35'0 0.0
2017-Nov-03 16:59N 43°33' W 079°35'0 0.0
2017-Nov-03 16:30N 43°33' W 079°35'0 0.0
2017-Nov-03 15:59N 43°33' W 079°35'0 0.0
2017-Nov-03 15:28N 43°33' W 079°35'0 0.0
2017-Nov-03 14:59N 43°33' W 079°35'0 0.0
2017-Nov-03 14:29N 43°33' W 079°35'0 0.0
2017-Nov-03 13:58N 43°33' W 079°35'0 0.0
2017-Nov-03 13:30N 43°33' W 079°35'0 0.0
2017-Nov-03 13:00N 43°33' W 079°35'0 0.0
2017-Nov-03 12:30N 43°33' W 079°35'0 0.0
2017-Nov-03 11:58N 43°33' W 079°35'0 0.0
2017-Nov-03 11:30N 43°33' W 079°35'0 0.0
2017-Nov-03 11:00N 43°33' W 079°35'0 0.0
2017-Nov-03 10:30N 43°33' W 079°35'0 0.0
2017-Nov-03 09:58N 43°33' W 079°35'0 0.0
2017-Nov-03 09:29N 43°33' W 079°35'0 0.0
2017-Nov-03 09:00N 43°33' W 079°35'0 0.0
2017-Nov-03 08:30N 43°33' W 079°35'0 0.0
2017-Nov-03 07:57N 43°33' W 079°35'0 0.0
2017-Nov-03 07:29N 43°33' W 079°35'0 0.0
2017-Nov-03 06:59N 43°33' W 079°35'0 0.0
2017-Nov-03 06:29N 43°33' W 079°35'0 0.0
2017-Nov-03 05:57N 43°33' W 079°35'0 0.0
2017-Nov-03 05:28N 43°33' W 079°35'0 0.0
2017-Nov-03 04:57N 43°33' W 079°35'0 0.0
2017-Nov-03 04:27N 43°33' W 079°35'0 0.0
2017-Nov-03 03:59N 43°33' W 079°35'0 0.0
2017-Nov-03 03:28N 43°33' W 079°35'0 0.0
2017-Nov-03 03:00N 43°33' W 079°35'0 0.0
2017-Nov-03 02:29N 43°33' W 079°35'0 0.0
2017-Nov-03 02:00N 43°33' W 079°35'0 0.0
2017-Nov-03 01:29N 43°33' W 079°35'1 1.9
2017-Nov-03 01:01N 43°32' W 079°35'1 1.7
2017-Nov-03 00:29N 43°33' W 079°35'0 0.0
2017-Nov-02 23:58N 43°33' W 079°35'0 0.0
2017-Nov-02 23:29N 43°33' W 079°35'0 0.0
2017-Nov-02 23:00N 43°33' W 079°35'0 0.0
2017-Nov-02 22:28N 43°33' W 079°35'0 0.1
2017-Nov-02 22:00N 43°33' W 079°35'0 0.0
2017-Nov-02 21:28N 43°33' W 079°35'0 0.0
2017-Nov-02 20:59N 43°33' W 079°35'0 0.0
2017-Nov-02 20:27N 43°33' W 079°35'0 0.0
2017-Nov-02 19:59N 43°33' W 079°35'0 0.0
2017-Nov-02 19:30N 43°33' W 079°35'0 0.0
2017-Nov-02 18:59N 43°33' W 079°35'0 0.1
2017-Nov-02 18:30N 43°33' W 079°35'0 0.0
2017-Nov-02 17:58N 43°33' W 079°35'0 0.0
2017-Nov-02 17:29N 43°33' W 079°35'0 0.0
2017-Nov-02 16:58N 43°33' W 079°35'0 0.0
2017-Nov-02 16:29N 43°33' W 079°35'0 0.0
2017-Nov-02 16:00N 43°33' W 079°35'0 0.0
2017-Nov-02 15:31N 43°33' W 079°35'0 0.0
2017-Nov-02 14:58N 43°33' W 079°35'0 0.0
2017-Nov-02 14:30N 43°33' W 079°35'0 0.0
2017-Nov-02 13:59N 43°33' W 079°35'0 0.0
2017-Nov-02 13:30N 43°33' W 079°35'0 0.0
2017-Nov-02 12:59N 43°33' W 079°35'0 0.0
2017-Nov-02 12:30N 43°33' W 079°35'0 0.0
2017-Nov-02 11:57N 43°33' W 079°35'0 0.0
2017-Nov-02 11:30N 43°33' W 079°35'0 0.0
2017-Nov-02 11:00N 43°33' W 079°35'0 0.0
2017-Nov-02 10:30N 43°33' W 079°35'0 0.0
2017-Nov-02 09:38N 43°33' W 079°35'0 0.1
2017-Nov-02 09:29N 43°33' W 079°35'0 0.0
2017-Nov-02 09:00N 43°33' W 079°35'0 0.0
2017-Nov-02 08:31N 43°33' W 079°35'0 0.0
2017-Nov-02 08:00N 43°33' W 079°35'0 0.0
2017-Nov-02 07:30N 43°33' W 079°35'0 0.0
2017-Nov-02 07:00N 43°33' W 079°35'0 0.0
2017-Nov-01 00:24N 43°33' W 079°35'0 0.0
2017-Oct-31 23:59N 43°33' W 079°35'0 0.0
2017-Oct-31 23:29N 43°33' W 079°35'0 0.0
2017-Oct-31 22:58N 43°33' W 079°35'0 0.1
2017-Oct-31 22:30N 43°33' W 079°35'0 0.0
2017-Oct-31 21:59N 43°33' W 079°35'0 0.0
2017-Oct-31 21:29N 43°33' W 079°35'0 0.0
2017-Oct-31 20:59N 43°33' W 079°35'0 0.0
2017-Oct-31 20:30N 43°33' W 079°35'0 0.1
2017-Oct-31 20:00N 43°33' W 079°35'0 0.0
2017-Oct-31 19:30N 43°33' W 079°35'0 0.0
2017-Oct-31 19:00N 43°33' W 079°35'0 0.0
2017-Oct-31 18:30N 43°33' W 079°35'0 0.0
2017-Oct-31 17:59N 43°33' W 079°35'0 0.0
2017-Oct-31 17:30N 43°33' W 079°35'0 0.0
2017-Oct-31 16:59N 43°33' W 079°35'0 0.0
2017-Oct-31 16:29N 43°33' W 079°35'0 0.0
2017-Oct-31 16:00N 43°33' W 079°35'0 0.0
2017-Oct-31 15:29N 43°33' W 079°35'0 0.0
2017-Oct-31 14:59N 43°33' W 079°35'0 0.0
2017-Oct-31 14:30N 43°33' W 079°35'0 0.0
2017-Oct-31 13:58N 43°33' W 079°35'0 0.0
2017-Oct-31 13:30N 43°33' W 079°35'0 0.0
2017-Oct-31 13:00N 43°33' W 079°35'0 0.0
2017-Oct-31 12:30N 43°33' W 079°35'0 0.0
2017-Oct-31 12:00N 43°33' W 079°35'0 0.0
2017-Oct-31 11:29N 43°33' W 079°35'0 0.0
2017-Oct-31 10:59N 43°33' W 079°35'0 0.0
2017-Oct-31 10:30N 43°33' W 079°35'0 0.0
2017-Oct-31 09:58N 43°33' W 079°35'0 0.0
2017-Oct-31 09:28N 43°33' W 079°35'0 0.1
2017-Oct-31 08:59N 43°33' W 079°35'0 0.0
2017-Oct-31 08:30N 43°33' W 079°35'0 0.0
2017-Oct-31 07:58N 43°33' W 079°35'0 0.0
2017-Oct-31 07:29N 43°33' W 079°35'0 0.1
2017-Oct-31 07:00N 43°33' W 079°35'0 0.0
2017-Oct-31 06:28N 43°33' W 079°35'0 0.0
2017-Oct-31 05:58N 43°33' W 079°35'0 0.0
2017-Oct-31 05:28N 43°33' W 079°35'0 0.0
2017-Oct-31 04:59N 43°33' W 079°35'0 0.0
2017-Oct-31 04:28N 43°33' W 079°35'0 0.0
2017-Oct-31 03:59N 43°33' W 079°35'0 0.0
2017-Oct-31 03:30N 43°33' W 079°35'0 0.0
2017-Oct-31 02:59N 43°33' W 079°35'0 0.0
2017-Oct-31 02:30N 43°33' W 079°35'0 0.0
2017-Oct-31 01:57N 43°33' W 079°35'0 0.1
2017-Oct-31 01:29N 43°33' W 079°35'0 0.0
2017-Oct-31 00:58N 43°33' W 079°35'0 0.0
2017-Oct-31 00:29N 43°33' W 079°35'0 0.0
2017-Oct-31 00:00N 43°33' W 079°35'0 0.0
2017-Oct-30 23:28N 43°33' W 079°35'0 0.0
2017-Oct-30 22:59N 43°33' W 079°35'0 0.0
2017-Oct-30 22:30N 43°33' W 079°35'0 0.0
2017-Oct-30 21:59N 43°33' W 079°35'0 0.0
2017-Oct-30 21:30N 43°33' W 079°35'0 0.0
2017-Oct-30 20:59N 43°33' W 079°35'0 0.0
2017-Oct-30 20:30N 43°33' W 079°35'0 0.0
2017-Oct-30 19:59N 43°33' W 079°35'0 0.0
2017-Oct-30 19:30N 43°33' W 079°35'0 0.0
2017-Oct-30 19:00N 43°33' W 079°35'0 0.0
2017-Oct-30 18:28N 43°33' W 079°35'0 0.0
2017-Oct-30 17:58N 43°33' W 079°35'0 0.0
2017-Oct-30 17:30N 43°33' W 079°35'0 0.0
2017-Oct-30 16:59N 43°33' W 079°35'0 0.0
2017-Oct-30 16:30N 43°33' W 079°35'0 0.0
2017-Oct-30 15:59N 43°33' W 079°35'0 0.0
2017-Oct-30 15:28N 43°33' W 079°35'0 0.0
2017-Oct-30 14:59N 43°33' W 079°35'0 0.0
2017-Oct-30 13:58N 43°33' W 079°35'0 0.0
2017-Oct-30 13:30N 43°33' W 079°35'0 0.0
2017-Oct-30 12:59N 43°33' W 079°35'0 0.0
2017-Oct-30 12:27N 43°33' W 079°35'0 0.0
2017-Oct-30 12:00N 43°33' W 079°35'0 0.0
2017-Oct-30 11:29N 43°33' W 079°35'0 0.0
2017-Oct-30 10:59N 43°33' W 079°35'0 0.0
2017-Oct-30 10:29N 43°33' W 079°35'0 0.0
2017-Oct-30 10:00N 43°33' W 079°35'0 0.0
2017-Oct-30 09:29N 43°33' W 079°35'0 0.0
2017-Oct-30 08:59N 43°33' W 079°35'0 0.0
2017-Oct-30 08:28N 43°33' W 079°35'0 0.0
2017-Oct-30 07:54N 43°33' W 079°35'0 0.0
2017-Oct-30 07:30N 43°33' W 079°35'0 0.0
2017-Oct-30 06:59N 43°33' W 079°35'0 0.0
2017-Oct-30 06:28N 43°33' W 079°35'0 0.0
2017-Oct-30 06:00N 43°33' W 079°35'0 0.0
2017-Oct-30 05:29N 43°33' W 079°35'0 0.0
2017-Oct-30 05:00N 43°33' W 079°35'0 0.0
2017-Oct-30 04:28N 43°33' W 079°35'0 0.0
2017-Oct-30 03:59N 43°33' W 079°35'0 0.0
2017-Oct-30 03:30N 43°33' W 079°35'0 0.0
2017-Oct-30 02:58N 43°33' W 079°35'0 0.0
2017-Oct-30 02:30N 43°33' W 079°35'0 0.0
2017-Oct-30 01:59N 43°33' W 079°35'0 0.0
2017-Oct-30 01:30N 43°33' W 079°35'0 0.0
2017-Oct-30 01:00N 43°33' W 079°35'0 0.0
2017-Oct-30 00:30N 43°33' W 079°35'0 0.0
2017-Oct-30 00:00N 43°33' W 079°35'0 0.0
2017-Oct-29 23:28N 43°33' W 079°35'0 0.0
2017-Oct-29 22:58N 43°33' W 079°35'0 0.0
2017-Oct-29 22:28N 43°33' W 079°35'0 0.0
2017-Oct-29 22:00N 43°33' W 079°35'0 0.0
2017-Oct-29 21:29N 43°33' W 079°35'0 0.0
2017-Oct-29 20:59N 43°33' W 079°35'0 0.0
2017-Oct-29 20:29N 43°33' W 079°35'0 0.0
2017-Oct-29 20:00N 43°33' W 079°35'0 0.0
2017-Oct-29 19:29N 43°33' W 079°35'0 0.0
2017-Oct-29 19:00N 43°33' W 079°35'0 0.0
2017-Oct-29 18:29N 43°33' W 079°35'0 0.0
2017-Oct-29 17:59N 43°33' W 079°35'0 0.0
2017-Oct-29 17:30N 43°33' W 079°35'0 0.0
2017-Oct-29 16:59N 43°33' W 079°35'0 0.0
2017-Oct-29 16:30N 43°33' W 079°35'0 0.1
2017-Oct-29 16:00N 43°33' W 079°35'0 0.1
2017-Oct-29 15:29N 43°33' W 079°35'0 0.0
2017-Oct-29 14:59N 43°33' W 079°35'0 0.0
2017-Oct-29 14:29N 43°33' W 079°35'0 0.0
2017-Oct-29 14:00N 43°33' W 079°35'0 0.0
2017-Oct-29 13:30N 43°33' W 079°35'0 0.0
2017-Oct-29 12:58N 43°33' W 079°35'0 0.0
2017-Oct-29 12:28N 43°33' W 079°35'0 0.0
2017-Oct-29 11:59N 43°33' W 079°35'0 0.0
2017-Oct-29 11:29N 43°33' W 079°35'0 0.0
2017-Oct-29 10:58N 43°33' W 079°35'0 0.0
2017-Oct-29 10:30N 43°33' W 079°35'0 0.0
2017-Oct-29 10:00N 43°33' W 079°35'0 0.0
2017-Oct-29 09:29N 43°33' W 079°35'0 0.0
2017-Oct-29 09:00N 43°33' W 079°35'0 0.0
2017-Oct-29 08:30N 43°33' W 079°35'0 0.0
2017-Oct-29 07:59N 43°33' W 079°35'0 0.0
2017-Oct-29 07:28N 43°33' W 079°35'0 0.0
2017-Oct-29 06:58N 43°33' W 079°35'0 0.0
2017-Oct-29 06:29N 43°33' W 079°35'0 0.0
2017-Oct-29 05:59N 43°33' W 079°35'0 0.0
2017-Oct-29 05:30N 43°33' W 079°35'0 0.0
2017-Oct-29 05:00N 43°33' W 079°35'0 0.0
2017-Oct-29 04:30N 43°33' W 079°35'0 0.0
2017-Oct-29 03:59N 43°33' W 079°35'0 0.0
2017-Oct-28 19:00N 43°33' W 079°35'0 0.0
2017-Oct-28 18:28N 43°33' W 079°35'0 0.0
2017-Oct-28 17:59N 43°33' W 079°35'0 0.0
2017-Oct-28 17:30N 43°33' W 079°35'0 0.0
2017-Oct-28 16:58N 43°33' W 079°35'0 0.1
2017-Oct-28 16:29N 43°33' W 079°35'0 0.0
2017-Oct-28 16:00N 43°33' W 079°35'0 0.0
2017-Oct-28 15:29N 43°33' W 079°35'0 0.0
2017-Oct-28 14:58N 43°33' W 079°35'0 0.0
2017-Oct-28 14:28N 43°33' W 079°35'0 0.0
2017-Oct-28 13:58N 43°33' W 079°35'0 0.0
2017-Oct-28 13:28N 43°33' W 079°35'0 0.0
2017-Oct-28 12:58N 43°33' W 079°35'0 0.0
2017-Oct-28 12:29N 43°33' W 079°35'0 0.0
2017-Oct-28 11:57N 43°33' W 079°35'0 0.0
2017-Oct-28 11:29N 43°33' W 079°35'0 0.1
2017-Oct-28 11:00N 43°33' W 079°35'0 0.1
2017-Oct-28 10:28N 43°33' W 079°35'0 0.0
2017-Oct-28 09:59N 43°33' W 079°35'0 0.1
2017-Oct-28 09:30N 43°33' W 079°35'0 0.0
2017-Oct-28 09:00N 43°33' W 079°35'0 0.0
2017-Oct-28 08:28N 43°33' W 079°35'0 0.0
2017-Oct-28 07:59N 43°33' W 079°35'0 0.1
2017-Oct-28 07:29N 43°33' W 079°35'0 0.0
2017-Oct-28 07:00N 43°33' W 079°35'0 0.0
2017-Oct-28 06:28N 43°33' W 079°35'0 0.0
2017-Oct-28 06:00N 43°33' W 079°35'0 0.0
2017-Oct-28 05:29N 43°33' W 079°35'0 0.0
2017-Oct-28 05:00N 43°33' W 079°35'0 0.0
2017-Oct-28 04:29N 43°33' W 079°35'0 0.0
2017-Oct-28 03:59N 43°33' W 079°35'0 0.0
2017-Oct-28 03:31N 43°33' W 079°35'0 0.0
2017-Oct-28 03:00N 43°33' W 079°35'0 0.0
2017-Oct-28 02:29N 43°33' W 079°35'0 0.0
2017-Oct-28 01:58N 43°33' W 079°35'0 0.0
2017-Oct-28 01:29N 43°33' W 079°35'0 0.0
2017-Oct-28 01:01N 43°33' W 079°35'0 0.0
2017-Oct-28 00:30N 43°33' W 079°35'0 0.0
2017-Oct-27 23:55N 43°33' W 079°35'0 0.0
2017-Oct-27 23:28N 43°33' W 079°35'0 0.0
2017-Oct-27 23:00N 43°33' W 079°35'0 0.0
2017-Oct-27 22:30N 43°33' W 079°35'0 0.0
2017-Oct-27 21:58N 43°33' W 079°35'0 0.0
2017-Oct-27 21:29N 43°33' W 079°35'0 0.0
2017-Oct-27 21:00N 43°33' W 079°35'0 0.0
2017-Oct-27 20:29N 43°33' W 079°35'0 0.0
2017-Oct-27 20:00N 43°33' W 079°35'0 0.0
2017-Oct-27 19:30N 43°33' W 079°35'0 0.0
2017-Oct-27 18:58N 43°33' W 079°35'0 0.0
2017-Oct-27 18:30N 43°33' W 079°35'0 0.0
2017-Oct-27 18:00N 43°33' W 079°35'0 0.0
2017-Oct-27 17:27N 43°33' W 079°35'0 0.0
2017-Oct-27 16:58N 43°33' W 079°35'0 0.0
2017-Oct-27 16:28N 43°33' W 079°35'0 0.0
2017-Oct-27 15:58N 43°33' W 079°35'0 0.0
2017-Oct-27 15:29N 43°33' W 079°35'0 0.0
2017-Oct-27 14:58N 43°33' W 079°35'0 0.0
2017-Oct-27 14:29N 43°33' W 079°35'0 0.0
2017-Oct-27 14:00N 43°33' W 079°35'0 0.0
2017-Oct-27 13:30N 43°33' W 079°35'0 0.0
2017-Oct-27 13:00N 43°33' W 079°35'0 0.0
2017-Oct-27 12:29N 43°33' W 079°35'0 0.0
2017-Oct-27 11:59N 43°33' W 079°35'0 0.0
2017-Oct-27 11:30N 43°33' W 079°35'0 0.0
2017-Oct-27 11:00N 43°33' W 079°35'0 0.1
2017-Oct-27 10:30N 43°33' W 079°35'0 0.0
2017-Oct-27 09:57N 43°33' W 079°35'0 0.0
2017-Oct-27 09:30N 43°33' W 079°35'0 0.0
2017-Oct-27 08:58N 43°33' W 079°35'0 0.0
2017-Oct-27 08:29N 43°33' W 079°35'0 0.0
2017-Oct-27 08:00N 43°33' W 079°35'0 0.0
2017-Oct-27 07:30N 43°33' W 079°35'0 0.0
2017-Oct-27 06:59N 43°33' W 079°35'0 0.0
2017-Oct-27 06:28N 43°33' W 079°35'0 0.0
2017-Oct-27 05:59N 43°33' W 079°35'0 0.0
2017-Oct-27 05:30N 43°33' W 079°35'0 0.0
2017-Oct-27 04:59N 43°33' W 079°35'0 0.0
2017-Oct-27 04:28N 43°33' W 079°35'0 0.2
2017-Oct-27 04:00N 43°33' W 079°35'0 0.2
2017-Oct-27 03:30N 43°33' W 079°35'0 0.0
2017-Oct-27 03:00N 43°33' W 079°35'0 0.0
2017-Oct-27 02:30N 43°33' W 079°35'0 0.0
2017-Oct-27 01:52N 43°33' W 079°35'0 0.0
2017-Oct-27 01:30N 43°33' W 079°35'0 0.0
2017-Oct-27 00:57N 43°33' W 079°35'0 0.0
2017-Oct-27 00:28N 43°33' W 079°35'0 0.0
2017-Oct-26 23:58N 43°33' W 079°35'0 0.0
2017-Oct-26 23:30N 43°33' W 079°35'0 0.0
2017-Oct-26 22:59N 43°33' W 079°35'0 0.2
2017-Oct-26 22:28N 43°33' W 079°35'0 0.2
2017-Oct-26 22:00N 43°33' W 079°35'  
Track history (hours):
 
Tides and Currents Weather Stations Pressure Air Temp Water Temp Dewpoint Dewpoint Depression Visibility Wind Speed Wind Dir Waves Ship Positions

Diesel

Last reported at 2017-Nov-05 21:36 UTC. Time now 2017-Nov-21 23:10 UTC.
Position N 43°54' W 078°60'.
Warning: this ship's position is 16 days out of date.

Length 14 m; draft 1.2 m.

Type: Pleasure craft. MMSI: 316025548.

Date/timePositionNaut miles runAvg speedWind from/ knotsBaromVisibWave heightAir tempDewpointWater temp
2017-Nov-05 21:36N 43°54' W 078°60'442.7
2017-Nov-05 21:30N 43°52' W 078°55'1020.6
2017-Nov-05 21:00N 43°54' W 078°41'1 1.5
2017-Nov-05 20:29N 43°53' W 078°40'0 0.0
2017-Nov-05 17:24N 43°53' W 078°40'0 0.0
2017-Nov-05 17:00N 43°53' W 078°40'0 0.0
2017-Nov-05 16:30N 43°53' W 078°40'0 0.0
2017-Nov-05 16:00N 43°53' W 078°40'0 0.0
2017-Nov-05 15:27N 43°53' W 078°40'0 0.0
2017-Nov-05 14:57N 43°53' W 078°40'0 0.0
2017-Nov-05 14:28N 43°53' W 078°40'0 0.0
2017-Nov-05 13:57N 43°53' W 078°40'0 0.0
2017-Nov-05 13:29N 43°53' W 078°40'0 0.0
2017-Nov-05 12:57N 43°53' W 078°40'0 0.0
2017-Nov-05 12:29N 43°53' W 078°40'0 0.0
2017-Nov-05 11:58N 43°53' W 078°40'0 0.0
2017-Nov-05 11:30N 43°53' W 078°40'0 0.0
2017-Nov-05 10:59N 43°53' W 078°40'0 0.0
2017-Nov-05 10:30N 43°53' W 078°40'0 0.0
2017-Nov-05 09:58N 43°53' W 078°40'0 0.1
2017-Nov-05 09:27N 43°53' W 078°40'0 0.1
2017-Nov-05 09:00N 43°53' W 078°40'0 0.0
2017-Nov-05 08:30N 43°53' W 078°40'0 0.0
2017-Nov-05 07:59N 43°53' W 078°40'0 0.0
2017-Nov-05 07:30N 43°53' W 078°40'0 0.0
2017-Nov-05 06:59N 43°53' W 078°40'0 0.0
2017-Nov-05 06:28N 43°53' W 078°40'0 0.0
2017-Nov-05 05:59N 43°53' W 078°40'0 0.1
2017-Nov-05 05:29N 43°53' W 078°40'0 0.0
2017-Nov-05 04:59N 43°53' W 078°40'0 0.0
2017-Nov-05 04:30N 43°53' W 078°40'0 0.0
2017-Nov-05 03:58N 43°53' W 078°40'0 0.1
2017-Nov-05 03:29N 43°53' W 078°40'0 0.0
2017-Nov-05 02:59N 43°53' W 078°40'0 0.0
2017-Nov-05 02:29N 43°53' W 078°40'0 0.0
2017-Nov-05 01:59N 43°53' W 078°40'0 0.0
2017-Nov-05 01:28N 43°53' W 078°40'0 0.0
2017-Nov-05 00:58N 43°53' W 078°40'0 0.0
2017-Nov-05 00:28N 43°53' W 078°40'0 0.0
2017-Nov-04 23:59N 43°53' W 078°40'0 0.0
2017-Nov-04 23:29N 43°53' W 078°40'0 0.0
2017-Nov-04 23:00N 43°53' W 078°40'0 0.0
2017-Nov-04 22:28N 43°53' W 078°40'0 0.0
2017-Nov-04 22:00N 43°53' W 078°40'0 0.0
2017-Nov-04 21:29N 43°53' W 078°40'0 0.0
2017-Nov-04 20:57N 43°53' W 078°40'0 0.0
2017-Nov-04 20:29N 43°53' W 078°40'1 2.7
2017-Nov-04 20:00N 43°52' W 078°41'3 6.8
2017-Nov-04 19:30N 43°51' W 078°45'4 7.1
2017-Nov-04 19:00N 43°51' W 078°50'4 7.1
2017-Nov-04 18:30N 43°50' W 078°55'1 2.4
2017-Nov-04 17:59N 43°51' W 078°56'0 0.0
2017-Nov-04 17:30N 43°51' W 078°56'0 0.7
2017-Nov-04 17:00N 43°51' W 078°56'3 5.4
2017-Nov-04 16:30N 43°49' W 078°58'4 7.5
2017-Nov-04 16:00N 43°46' W 079°02'4 7.5
2017-Nov-04 15:30N 43°44' W 079°06'4 7.2
2017-Nov-04 15:00N 43°41' W 079°09'3 6.9
2017-Nov-04 14:30N 43°39' W 079°13'3 6.5
2017-Nov-04 14:00N 43°38' W 079°17'3 6.2
2017-Nov-04 13:30N 43°37' W 079°21'4 8.2
2017-Nov-04 13:00N 43°35' W 079°26'4 8.4
2017-Nov-04 12:31N 43°34' W 079°32'2 4.7
2017-Nov-04 11:59N 43°33' W 079°35'0 0.0
2017-Nov-04 11:28N 43°33' W 079°35'0 0.0
2017-Nov-04 10:59N 43°33' W 079°35'0 0.0
2017-Nov-04 10:28N 43°33' W 079°35'0 0.0
2017-Nov-04 09:59N 43°33' W 079°35'0 0.0
2017-Nov-04 09:29N 43°33' W 079°35'0 0.0
2017-Nov-04 08:58N 43°33' W 079°35'0 0.0
2017-Nov-04 08:29N 43°33' W 079°35'0 0.0
2017-Nov-04 08:00N 43°33' W 079°35'0 0.0
2017-Nov-04 07:28N 43°33' W 079°35'0 0.0
2017-Nov-04 07:00N 43°33' W 079°35'0 0.0
2017-Nov-04 06:30N 43°33' W 079°35'0 0.0
2017-Nov-04 05:58N 43°33' W 079°35'0 0.0
2017-Nov-04 05:30N 43°33' W 079°35'0 0.0
2017-Nov-04 04:58N 43°33' W 079°35'0 0.0
2017-Nov-04 04:29N 43°33' W 079°35'0 0.0
2017-Nov-04 04:00N 43°33' W 079°35'0 0.0
2017-Nov-04 03:29N 43°33' W 079°35'0 0.0
2017-Nov-04 03:00N 43°33' W 079°35'0 0.0
2017-Nov-04 02:29N 43°33' W 079°35'0 0.0
2017-Nov-04 01:59N 43°33' W 079°35'0 0.0
2017-Nov-04 01:30N 43°33' W 079°35'0 0.0
2017-Nov-04 00:59N 43°33' W 079°35'0 0.0
2017-Nov-04 00:28N 43°33' W 079°35'0 0.0
2017-Nov-03 23:59N 43°33' W 079°35'0 0.0
2017-Nov-03 23:28N 43°33' W 079°35'0 0.0
2017-Nov-03 22:58N 43°33' W 079°35'0 0.0
2017-Nov-03 22:28N 43°33' W 079°35'0 0.0
2017-Nov-03 22:00N 43°33' W 079°35'0 0.0
2017-Nov-03 21:29N 43°33' W 079°35'0 0.0
2017-Nov-03 20:59N 43°33' W 079°35'0 0.0
2017-Nov-03 20:30N 43°33' W 079°35'0 0.0
2017-Nov-03 20:00N 43°33' W 079°35'0 0.0
2017-Nov-03 19:30N 43°33' W 079°35'0 0.1
2017-Nov-03 18:58N 43°33' W 079°35'0 0.0
2017-Nov-03 18:30N 43°33' W 079°35'0 0.0
2017-Nov-03 18:00N 43°33' W 079°35'0 0.0
2017-Nov-03 17:30N 43°33' W 079°35'0 0.0
2017-Nov-03 16:59N 43°33' W 079°35'0 0.0
2017-Nov-03 16:30N 43°33' W 079°35'0 0.0
2017-Nov-03 15:59N 43°33' W 079°35'0 0.0
2017-Nov-03 15:28N 43°33' W 079°35'0 0.0
2017-Nov-03 14:59N 43°33' W 079°35'0 0.0
2017-Nov-03 14:29N 43°33' W 079°35'0 0.0
2017-Nov-03 13:58N 43°33' W 079°35'0 0.0
2017-Nov-03 13:30N 43°33' W 079°35'0 0.0
2017-Nov-03 13:00N 43°33' W 079°35'0 0.0
2017-Nov-03 12:30N 43°33' W 079°35'0 0.0
2017-Nov-03 11:58N 43°33' W 079°35'0 0.0
2017-Nov-03 11:30N 43°33' W 079°35'0 0.0
2017-Nov-03 11:00N 43°33' W 079°35'0 0.0
2017-Nov-03 10:30N 43°33' W 079°35'0 0.0
2017-Nov-03 09:58N 43°33' W 079°35'0 0.0
2017-Nov-03 09:29N 43°33' W 079°35'0 0.0
2017-Nov-03 09:00N 43°33' W 079°35'0 0.0
2017-Nov-03 08:30N 43°33' W 079°35'0 0.0
2017-Nov-03 07:57N 43°33' W 079°35'0 0.0
2017-Nov-03 07:29N 43°33' W 079°35'0 0.0
2017-Nov-03 06:59N 43°33' W 079°35'0 0.0
2017-Nov-03 06:29N 43°33' W 079°35'0 0.0
2017-Nov-03 05:57N 43°33' W 079°35'0 0.0
2017-Nov-03 05:28N 43°33' W 079°35'0 0.0
2017-Nov-03 04:57N 43°33' W 079°35'0 0.0
2017-Nov-03 04:27N 43°33' W 079°35'0 0.0
2017-Nov-03 03:59N 43°33' W 079°35'0 0.0
2017-Nov-03 03:28N 43°33' W 079°35'0 0.0
2017-Nov-03 03:00N 43°33' W 079°35'0 0.0
2017-Nov-03 02:29N 43°33' W 079°35'0 0.0
2017-Nov-03 02:00N 43°33' W 079°35'0 0.0
2017-Nov-03 01:29N 43°33' W 079°35'1 1.9
2017-Nov-03 01:01N 43°32' W 079°35'1 1.7
2017-Nov-03 00:29N 43°33' W 079°35'0 0.0
2017-Nov-02 23:58N 43°33' W 079°35'0 0.0
2017-Nov-02 23:29N 43°33' W 079°35'0 0.0
2017-Nov-02 23:00N 43°33' W 079°35'0 0.0
2017-Nov-02 22:28N 43°33' W 079°35'0 0.1
2017-Nov-02 22:00N 43°33' W 079°35'0 0.0
2017-Nov-02 21:28N 43°33' W 079°35'0 0.0
2017-Nov-02 20:59N 43°33' W 079°35'0 0.0
2017-Nov-02 20:27N 43°33' W 079°35'0 0.0
2017-Nov-02 19:59N 43°33' W 079°35'0 0.0
2017-Nov-02 19:30N 43°33' W 079°35'0 0.0
2017-Nov-02 18:59N 43°33' W 079°35'0 0.1
2017-Nov-02 18:30N 43°33' W 079°35'0 0.0
2017-Nov-02 17:58N 43°33' W 079°35'0 0.0
2017-Nov-02 17:29N 43°33' W 079°35'0 0.0
2017-Nov-02 16:58N 43°33' W 079°35'0 0.0
2017-Nov-02 16:29N 43°33' W 079°35'0 0.0
2017-Nov-02 16:00N 43°33' W 079°35'0 0.0
2017-Nov-02 15:31N 43°33' W 079°35'0 0.0
2017-Nov-02 14:58N 43°33' W 079°35'0 0.0
2017-Nov-02 14:30N 43°33' W 079°35'0 0.0
2017-Nov-02 13:59N 43°33' W 079°35'0 0.0
2017-Nov-02 13:30N 43°33' W 079°35'0 0.0
2017-Nov-02 12:59N 43°33' W 079°35'0 0.0
2017-Nov-02 12:30N 43°33' W 079°35'0 0.0
2017-Nov-02 11:57N 43°33' W 079°35'0 0.0
2017-Nov-02 11:30N 43°33' W 079°35'0 0.0
2017-Nov-02 11:00N 43°33' W 079°35'0 0.0
2017-Nov-02 10:30N 43°33' W 079°35'0 0.0
2017-Nov-02 09:38N 43°33' W 079°35'0 0.1
2017-Nov-02 09:29N 43°33' W 079°35'0 0.0
2017-Nov-02 09:00N 43°33' W 079°35'0 0.0
2017-Nov-02 08:31N 43°33' W 079°35'0 0.0
2017-Nov-02 08:00N 43°33' W 079°35'0 0.0
2017-Nov-02 07:30N 43°33' W 079°35'0 0.0
2017-Nov-02 07:00N 43°33' W 079°35'0 0.0
2017-Nov-01 00:24N 43°33' W 079°35'0 0.0
2017-Oct-31 23:59N 43°33' W 079°35'0 0.0
2017-Oct-31 23:29N 43°33' W 079°35'0 0.0
2017-Oct-31 22:58N 43°33' W 079°35'0 0.1
2017-Oct-31 22:30N 43°33' W 079°35'0 0.0
2017-Oct-31 21:59N 43°33' W 079°35'0 0.0
2017-Oct-31 21:29N 43°33' W 079°35'0 0.0
2017-Oct-31 20:59N 43°33' W 079°35'0 0.0
2017-Oct-31 20:30N 43°33' W 079°35'0 0.1
2017-Oct-31 20:00N 43°33' W 079°35'0 0.0
2017-Oct-31 19:30N 43°33' W 079°35'0 0.0
2017-Oct-31 19:00N 43°33' W 079°35'0 0.0
2017-Oct-31 18:30N 43°33' W 079°35'0 0.0
2017-Oct-31 17:59N 43°33' W 079°35'0 0.0
2017-Oct-31 17:30N 43°33' W 079°35'0 0.0
2017-Oct-31 16:59N 43°33' W 079°35'0 0.0
2017-Oct-31 16:29N 43°33' W 079°35'0 0.0
2017-Oct-31 16:00N 43°33' W 079°35'0 0.0
2017-Oct-31 15:29N 43°33' W 079°35'0 0.0
2017-Oct-31 14:59N 43°33' W 079°35'0 0.0
2017-Oct-31 14:30N 43°33' W 079°35'0 0.0
2017-Oct-31 13:58N 43°33' W 079°35'0 0.0
2017-Oct-31 13:30N 43°33' W 079°35'0 0.0
2017-Oct-31 13:00N 43°33' W 079°35'0 0.0
2017-Oct-31 12:30N 43°33' W 079°35'0 0.0
2017-Oct-31 12:00N 43°33' W 079°35'0 0.0
2017-Oct-31 11:29N 43°33' W 079°35'0 0.0
2017-Oct-31 10:59N 43°33' W 079°35'0 0.0
2017-Oct-31 10:30N 43°33' W 079°35'0 0.0
2017-Oct-31 09:58N 43°33' W 079°35'0 0.0
2017-Oct-31 09:28N 43°33' W 079°35'0 0.1
2017-Oct-31 08:59N 43°33' W 079°35'0 0.0
2017-Oct-31 08:30N 43°33' W 079°35'0 0.0
2017-Oct-31 07:58N 43°33' W 079°35'0 0.0
2017-Oct-31 07:29N 43°33' W 079°35'0 0.1
2017-Oct-31 07:00N 43°33' W 079°35'0 0.0
2017-Oct-31 06:28N 43°33' W 079°35'0 0.0
2017-Oct-31 05:58N 43°33' W 079°35'0 0.0
2017-Oct-31 05:28N 43°33' W 079°35'0 0.0
2017-Oct-31 04:59N 43°33' W 079°35'0 0.0
2017-Oct-31 04:28N 43°33' W 079°35'0 0.0
2017-Oct-31 03:59N 43°33' W 079°35'0 0.0
2017-Oct-31 03:30N 43°33' W 079°35'0 0.0
2017-Oct-31 02:59N 43°33' W 079°35'0 0.0
2017-Oct-31 02:30N 43°33' W 079°35'0 0.0
2017-Oct-31 01:57N 43°33' W 079°35'0 0.1
2017-Oct-31 01:29N 43°33' W 079°35'0 0.0
2017-Oct-31 00:58N 43°33' W 079°35'0 0.0
2017-Oct-31 00:29N 43°33' W 079°35'0 0.0
2017-Oct-31 00:00N 43°33' W 079°35'0 0.0
2017-Oct-30 23:28N 43°33' W 079°35'0 0.0
2017-Oct-30 22:59N 43°33' W 079°35'0 0.0
2017-Oct-30 22:30N 43°33' W 079°35'0 0.0
2017-Oct-30 21:59N 43°33' W 079°35'0 0.0
2017-Oct-30 21:30N 43°33' W 079°35'0 0.0
2017-Oct-30 20:59N 43°33' W 079°35'0 0.0
2017-Oct-30 20:30N 43°33' W 079°35'0 0.0
2017-Oct-30 19:59N 43°33' W 079°35'0 0.0
2017-Oct-30 19:30N 43°33' W 079°35'0 0.0
2017-Oct-30 19:00N 43°33' W 079°35'0 0.0
2017-Oct-30 18:28N 43°33' W 079°35'0 0.0
2017-Oct-30 17:58N 43°33' W 079°35'0 0.0
2017-Oct-30 17:30N 43°33' W 079°35'0 0.0
2017-Oct-30 16:59N 43°33' W 079°35'0 0.0
2017-Oct-30 16:30N 43°33' W 079°35'0 0.0
2017-Oct-30 15:59N 43°33' W 079°35'0 0.0
2017-Oct-30 15:28N 43°33' W 079°35'0 0.0
2017-Oct-30 14:59N 43°33' W 079°35'0 0.0
2017-Oct-30 13:58N 43°33' W 079°35'0 0.0
2017-Oct-30 13:30N 43°33' W 079°35'0 0.0
2017-Oct-30 12:59N 43°33' W 079°35'0 0.0
2017-Oct-30 12:27N 43°33' W 079°35'0 0.0
2017-Oct-30 12:00N 43°33' W 079°35'0 0.0
2017-Oct-30 11:29N 43°33' W 079°35'0 0.0
2017-Oct-30 10:59N 43°33' W 079°35'0 0.0
2017-Oct-30 10:29N 43°33' W 079°35'0 0.0
2017-Oct-30 10:00N 43°33' W 079°35'0 0.0
2017-Oct-30 09:29N 43°33' W 079°35'0 0.0
2017-Oct-30 08:59N 43°33' W 079°35'0 0.0
2017-Oct-30 08:28N 43°33' W 079°35'0 0.0
2017-Oct-30 07:54N 43°33' W 079°35'0 0.0
2017-Oct-30 07:30N 43°33' W 079°35'0 0.0
2017-Oct-30 06:59N 43°33' W 079°35'0 0.0
2017-Oct-30 06:28N 43°33' W 079°35'0 0.0
2017-Oct-30 06:00N 43°33' W 079°35'0 0.0
2017-Oct-30 05:29N 43°33' W 079°35'0 0.0
2017-Oct-30 05:00N 43°33' W 079°35'0 0.0
2017-Oct-30 04:28N 43°33' W 079°35'0 0.0
2017-Oct-30 03:59N 43°33' W 079°35'0 0.0
2017-Oct-30 03:30N 43°33' W 079°35'0 0.0
2017-Oct-30 02:58N 43°33' W 079°35'0 0.0
2017-Oct-30 02:30N 43°33' W 079°35'0 0.0
2017-Oct-30 01:59N 43°33' W 079°35'0 0.0
2017-Oct-30 01:30N 43°33' W 079°35'0 0.0
2017-Oct-30 01:00N 43°33' W 079°35'0 0.0
2017-Oct-30 00:30N 43°33' W 079°35'0 0.0
2017-Oct-30 00:00N 43°33' W 079°35'0 0.0
2017-Oct-29 23:28N 43°33' W 079°35'0 0.0
2017-Oct-29 22:58N 43°33' W 079°35'0 0.0
2017-Oct-29 22:28N 43°33' W 079°35'0 0.0
2017-Oct-29 22:00N 43°33' W 079°35'0 0.0
2017-Oct-29 21:29N 43°33' W 079°35'0 0.0
2017-Oct-29 20:59N 43°33' W 079°35'0 0.0
2017-Oct-29 20:29N 43°33' W 079°35'0 0.0
2017-Oct-29 20:00N 43°33' W 079°35'0 0.0
2017-Oct-29 19:29N 43°33' W 079°35'0 0.0
2017-Oct-29 19:00N 43°33' W 079°35'0 0.0
2017-Oct-29 18:29N 43°33' W 079°35'0 0.0
2017-Oct-29 17:59N 43°33' W 079°35'0 0.0
2017-Oct-29 17:30N 43°33' W 079°35'0 0.0
2017-Oct-29 16:59N 43°33' W 079°35'0 0.0
2017-Oct-29 16:30N 43°33' W 079°35'0 0.1
2017-Oct-29 16:00N 43°33' W 079°35'0 0.1
2017-Oct-29 15:29N 43°33' W 079°35'0 0.0
2017-Oct-29 14:59N 43°33' W 079°35'0 0.0
2017-Oct-29 14:29N 43°33' W 079°35'0 0.0
2017-Oct-29 14:00N 43°33' W 079°35'0 0.0
2017-Oct-29 13:30N 43°33' W 079°35'0 0.0
2017-Oct-29 12:58N 43°33' W 079°35'0 0.0
2017-Oct-29 12:28N 43°33' W 079°35'0 0.0
2017-Oct-29 11:59N 43°33' W 079°35'0 0.0
2017-Oct-29 11:29N 43°33' W 079°35'0 0.0
2017-Oct-29 10:58N 43°33' W 079°35'0 0.0
2017-Oct-29 10:30N 43°33' W 079°35'0 0.0
2017-Oct-29 10:00N 43°33' W 079°35'0 0.0
2017-Oct-29 09:29N 43°33' W 079°35'0 0.0
2017-Oct-29 09:00N 43°33' W 079°35'0 0.0
2017-Oct-29 08:30N 43°33' W 079°35'0 0.0
2017-Oct-29 07:59N 43°33' W 079°35'0 0.0
2017-Oct-29 07:28N 43°33' W 079°35'0 0.0
2017-Oct-29 06:58N 43°33' W 079°35'0 0.0
2017-Oct-29 06:29N 43°33' W 079°35'0 0.0
2017-Oct-29 05:59N 43°33' W 079°35'0 0.0
2017-Oct-29 05:30N 43°33' W 079°35'0 0.0
2017-Oct-29 05:00N 43°33' W 079°35'0 0.0
2017-Oct-29 04:30N 43°33' W 079°35'0 0.0
2017-Oct-29 03:59N 43°33' W 079°35'0 0.0
2017-Oct-28 19:00N 43°33' W 079°35'0 0.0
2017-Oct-28 18:28N 43°33' W 079°35'0 0.0
2017-Oct-28 17:59N 43°33' W 079°35'0 0.0
2017-Oct-28 17:30N 43°33' W 079°35'0 0.0
2017-Oct-28 16:58N 43°33' W 079°35'0 0.1
2017-Oct-28 16:29N 43°33' W 079°35'0 0.0
2017-Oct-28 16:00N 43°33' W 079°35'0 0.0
2017-Oct-28 15:29N 43°33' W 079°35'0 0.0
2017-Oct-28 14:58N 43°33' W 079°35'0 0.0
2017-Oct-28 14:28N 43°33' W 079°35'0 0.0
2017-Oct-28 13:58N 43°33' W 079°35'0 0.0
2017-Oct-28 13:28N 43°33' W 079°35'0 0.0
2017-Oct-28 12:58N 43°33' W 079°35'0 0.0
2017-Oct-28 12:29N 43°33' W 079°35'0 0.0
2017-Oct-28 11:57N 43°33' W 079°35'0 0.0
2017-Oct-28 11:29N 43°33' W 079°35'0 0.1
2017-Oct-28 11:00N 43°33' W 079°35'0 0.1
2017-Oct-28 10:28N 43°33' W 079°35'0 0.0
2017-Oct-28 09:59N 43°33' W 079°35'0 0.1
2017-Oct-28 09:30N 43°33' W 079°35'0 0.0
2017-Oct-28 09:00N 43°33' W 079°35'0 0.0
2017-Oct-28 08:28N 43°33' W 079°35'0 0.0
2017-Oct-28 07:59N 43°33' W 079°35'0 0.1
2017-Oct-28 07:29N 43°33' W 079°35'0 0.0
2017-Oct-28 07:00N 43°33' W 079°35'0 0.0
2017-Oct-28 06:28N 43°33' W 079°35'0 0.0
2017-Oct-28 06:00N 43°33' W 079°35'0 0.0
2017-Oct-28 05:29N 43°33' W 079°35'0 0.0
2017-Oct-28 05:00N 43°33' W 079°35'0 0.0
2017-Oct-28 04:29N 43°33' W 079°35'0 0.0
2017-Oct-28 03:59N 43°33' W 079°35'0 0.0
2017-Oct-28 03:31N 43°33' W 079°35'0 0.0
2017-Oct-28 03:00N 43°33' W 079°35'0 0.0
2017-Oct-28 02:29N 43°33' W 079°35'0 0.0
2017-Oct-28 01:58N 43°33' W 079°35'0 0.0
2017-Oct-28 01:29N 43°33' W 079°35'0 0.0
2017-Oct-28 01:01N 43°33' W 079°35'0 0.0
2017-Oct-28 00:30N 43°33' W 079°35'0 0.0
2017-Oct-27 23:55N 43°33' W 079°35'0 0.0
2017-Oct-27 23:28N 43°33' W 079°35'0 0.0
2017-Oct-27 23:00N 43°33' W 079°35'0 0.0
2017-Oct-27 22:30N 43°33' W 079°35'0 0.0
2017-Oct-27 21:58N 43°33' W 079°35'0 0.0
2017-Oct-27 21:29N 43°33' W 079°35'0 0.0
2017-Oct-27 21:00N 43°33' W 079°35'0 0.0
2017-Oct-27 20:29N 43°33' W 079°35'0 0.0
2017-Oct-27 20:00N 43°33' W 079°35'0 0.0
2017-Oct-27 19:30N 43°33' W 079°35'0 0.0
2017-Oct-27 18:58N 43°33' W 079°35'0 0.0
2017-Oct-27 18:30N 43°33' W 079°35'0 0.0
2017-Oct-27 18:00N 43°33' W 079°35'0 0.0
2017-Oct-27 17:27N 43°33' W 079°35'0 0.0
2017-Oct-27 16:58N 43°33' W 079°35'0 0.0
2017-Oct-27 16:28N 43°33' W 079°35'0 0.0
2017-Oct-27 15:58N 43°33' W 079°35'0 0.0
2017-Oct-27 15:29N 43°33' W 079°35'0 0.0
2017-Oct-27 14:58N 43°33' W 079°35'0 0.0
2017-Oct-27 14:29N 43°33' W 079°35'0 0.0
2017-Oct-27 14:00N 43°33' W 079°35'0 0.0
2017-Oct-27 13:30N 43°33' W 079°35'0 0.0
2017-Oct-27 13:00N 43°33' W 079°35'0 0.0
2017-Oct-27 12:29N 43°33' W 079°35'0 0.0
2017-Oct-27 11:59N 43°33' W 079°35'0 0.0
2017-Oct-27 11:30N 43°33' W 079°35'0 0.0
2017-Oct-27 11:00N 43°33' W 079°35'0 0.1
2017-Oct-27 10:30N 43°33' W 079°35'0 0.0
2017-Oct-27 09:57N 43°33' W 079°35'0 0.0
2017-Oct-27 09:30N 43°33' W 079°35'0 0.0
2017-Oct-27 08:58N 43°33' W 079°35'0 0.0
2017-Oct-27 08:29N 43°33' W 079°35'0 0.0
2017-Oct-27 08:00N 43°33' W 079°35'0 0.0
2017-Oct-27 07:30N 43°33' W 079°35'0 0.0
2017-Oct-27 06:59N 43°33' W 079°35'0 0.0
2017-Oct-27 06:28N 43°33' W 079°35'0 0.0
2017-Oct-27 05:59N 43°33' W 079°35'0 0.0
2017-Oct-27 05:30N 43°33' W 079°35'0 0.0
2017-Oct-27 04:59N 43°33' W 079°35'0 0.0
2017-Oct-27 04:28N 43°33' W 079°35'0 0.2
2017-Oct-27 04:00N 43°33' W 079°35'0 0.2
2017-Oct-27 03:30N 43°33' W 079°35'0 0.0
2017-Oct-27 03:00N 43°33' W 079°35'0 0.0
2017-Oct-27 02:30N 43°33' W 079°35'0 0.0
2017-Oct-27 01:52N 43°33' W 079°35'0 0.0
2017-Oct-27 01:30N 43°33' W 079°35'0 0.0
2017-Oct-27 00:57N 43°33' W 079°35'0 0.0
2017-Oct-27 00:28N 43°33' W 079°35'0 0.0
2017-Oct-26 23:58N 43°33' W 079°35'0 0.0
2017-Oct-26 23:30N 43°33' W 079°35'0 0.0
2017-Oct-26 22:59N 43°33' W 079°35'0 0.2
2017-Oct-26 22:28N 43°33' W 079°35'0 0.2
2017-Oct-26 22:00N 43°33' W 079°35'  

Dump ship's entire track history